createdAt,value
2022-12-22T06:06:16.680Z,5.77
2022-12-22T06:07:20.092Z,5.83
2022-12-22T06:08:23.649Z,5.98
2022-12-22T06:09:26.748Z,6.15
2022-12-22T06:10:29.740Z,6.32
2022-12-22T06:11:32.819Z,6.48
2022-12-22T06:12:35.834Z,6.63
2022-12-22T06:13:38.831Z,6.75
2022-12-22T06:14:41.812Z,6.87
2022-12-22T06:15:44.820Z,6.97
2022-12-22T06:16:47.816Z,7.05
2022-12-22T06:17:50.898Z,7.12
2022-12-22T06:18:53.880Z,7.20
2022-12-22T06:19:56.957Z,7.28
2022-12-22T06:20:59.980Z,7.34
2022-12-22T06:22:03.131Z,7.39
2022-12-22T06:23:06.158Z,7.45
2022-12-22T06:24:09.332Z,7.50
2022-12-22T06:25:18.131Z,7.55
2022-12-22T06:26:21.844Z,7.59
2022-12-22T06:27:25.008Z,7.63
2022-12-22T06:28:28.968Z,7.67
2022-12-22T06:29:32.041Z,7.70
2022-12-22T06:30:34.999Z,7.74
2022-12-22T06:31:38.086Z,7.76
2022-12-22T06:32:41.522Z,7.78
2022-12-22T06:33:45.641Z,7.81
2022-12-22T06:34:48.696Z,7.83
2022-12-22T06:35:57.991Z,7.85
2022-12-22T06:37:02.154Z,7.87
2022-12-22T06:38:05.321Z,7.85
2022-12-22T06:39:08.583Z,7.88
2022-12-22T06:40:11.852Z,7.90
2022-12-22T06:41:14.755Z,7.93
2022-12-22T06:42:36.406Z,7.95
2022-12-22T06:43:39.623Z,7.96
2022-12-22T06:44:42.760Z,7.97
2022-12-22T06:45:45.823Z,7.99
2022-12-22T06:46:48.852Z,8.01
2022-12-22T06:47:52.019Z,8.03
2022-12-22T06:48:55.359Z,8.04
2022-12-22T06:49:58.425Z,8.05
2022-12-22T06:51:01.477Z,8.06
2022-12-22T06:52:08.955Z,8.07
2022-12-22T06:53:12.046Z,8.07
2022-12-22T06:54:16.117Z,8.09
2022-12-22T06:55:21.966Z,8.11
2022-12-22T06:56:25.042Z,8.13
2022-12-22T06:57:28.838Z,8.17
2022-12-22T06:58:31.935Z,8.19
2022-12-22T06:59:35.049Z,8.21
2022-12-22T07:00:38.599Z,8.24
2022-12-22T07:01:42.916Z,8.26
2022-12-22T07:02:46.236Z,8.29
2022-12-22T07:03:49.718Z,8.30
2022-12-22T07:04:52.761Z,8.31
2022-12-22T07:05:55.917Z,8.32
2022-12-22T07:06:58.851Z,8.33
2022-12-22T07:08:08.078Z,8.34
2022-12-22T07:09:11.946Z,8.34
2022-12-22T07:10:15.049Z,8.34
2022-12-22T07:11:18.213Z,8.34
2022-12-22T07:12:21.869Z,8.34
2022-12-22T07:13:32.006Z,8.34
2022-12-22T07:14:35.021Z,8.35
2022-12-22T07:15:38.025Z,8.35
2022-12-22T07:16:41.264Z,8.35
2022-12-22T07:17:44.384Z,8.35
2022-12-22T07:18:47.307Z,8.34
2022-12-22T07:19:50.264Z,8.32
2022-12-22T07:20:53.508Z,8.32
2022-12-22T07:21:56.608Z,8.32
2022-12-22T07:22:59.558Z,8.31
2022-12-22T07:24:02.544Z,8.31
2022-12-22T07:25:05.837Z,8.30
2022-12-22T07:26:10.009Z,8.30
2022-12-22T07:27:13.106Z,8.30
2022-12-22T07:28:20.722Z,8.31
2022-12-22T07:29:24.405Z,8.31
2022-12-22T07:30:27.584Z,8.30
2022-12-22T07:31:30.760Z,8.31
2022-12-22T07:32:34.051Z,8.31
2022-12-22T07:33:37.666Z,8.29
2022-12-22T07:34:40.657Z,8.29
2022-12-22T07:35:43.735Z,8.27
2022-12-22T07:36:46.736Z,8.27
2022-12-22T07:37:50.654Z,8.26
2022-12-22T07:38:53.753Z,8.26
2022-12-22T07:39:56.735Z,8.25
2022-12-22T07:41:04.602Z,8.25
2022-12-22T07:42:30.941Z,8.25
2022-12-22T07:43:34.058Z,8.25
2022-12-22T07:44:36.992Z,8.25
2022-12-22T07:45:39.941Z,8.25
2022-12-22T07:46:43.161Z,8.24
2022-12-22T07:47:47.338Z,8.23
2022-12-22T07:49:09.515Z,8.22
2022-12-22T07:50:25.321Z,8.21
2022-12-22T07:51:32.712Z,8.20
2022-12-22T07:52:35.706Z,8.19
2022-12-22T07:53:39.843Z,8.18
2022-12-22T07:54:43.058Z,8.15
2022-12-22T07:55:46.061Z,8.11
2022-12-22T07:56:49.054Z,8.06
2022-12-22T07:57:52.596Z,8.02
2022-12-22T07:58:55.822Z,7.97
2022-12-22T07:59:58.920Z,7.93
2022-12-22T08:01:02.135Z,7.91
2022-12-22T08:02:05.210Z,7.88
2022-12-22T08:03:09.479Z,7.87
2022-12-22T08:04:14.462Z,7.85
2022-12-22T08:05:18.360Z,7.85
2022-12-22T08:06:21.320Z,7.85
2022-12-22T08:07:24.288Z,7.85
2022-12-22T08:08:27.525Z,7.86
2022-12-22T08:09:30.619Z,7.86
2022-12-22T08:10:33.666Z,7.85
2022-12-22T08:11:36.585Z,7.85
2022-12-22T08:12:40.270Z,7.84
2022-12-22T08:13:43.960Z,7.84
2022-12-22T08:14:48.407Z,7.83
2022-12-22T08:15:51.631Z,7.82
2022-12-22T08:16:54.655Z,7.83
2022-12-22T08:17:57.697Z,7.82
2022-12-22T08:19:00.694Z,7.82
2022-12-22T08:20:04.910Z,7.82
2022-12-22T08:21:09.056Z,7.83
2022-12-22T08:22:12.451Z,7.83
2022-12-22T08:23:15.398Z,7.84
2022-12-22T08:24:18.363Z,7.84
2022-12-22T08:25:21.673Z,7.85
2022-12-22T08:26:31.149Z,7.86
2022-12-22T08:27:49.790Z,7.85
2022-12-22T08:29:02.079Z,7.85
2022-12-22T08:30:07.462Z,7.84
2022-12-22T08:31:10.896Z,7.82
2022-12-22T08:32:14.197Z,7.80
2022-12-22T08:33:17.148Z,7.78
2022-12-22T08:34:20.246Z,7.78
2022-12-22T08:35:23.208Z,7.78
2022-12-22T08:36:26.894Z,7.77
2022-12-22T08:37:33.766Z,7.77
2022-12-22T08:38:39.480Z,7.78
2022-12-22T08:39:47.683Z,7.78
2022-12-22T08:40:50.947Z,7.79
2022-12-22T08:41:54.866Z,7.80
2022-12-22T08:43:02.704Z,7.82
2022-12-22T08:44:05.737Z,7.84
2022-12-22T08:45:11.356Z,7.86
2022-12-22T08:46:14.430Z,7.88
2022-12-22T08:47:18.162Z,7.91
2022-12-22T08:48:21.307Z,7.93
2022-12-22T08:49:25.406Z,7.96
2022-12-22T08:50:28.369Z,7.98
2022-12-22T08:51:31.276Z,8.00
2022-12-22T08:52:34.448Z,8.02
2022-12-22T08:54:03.921Z,8.04
2022-12-22T08:55:01.068Z,8.06
2022-12-22T08:56:04.236Z,8.07
2022-12-22T08:57:07.265Z,8.11
2022-12-22T08:58:10.484Z,8.13
2022-12-22T08:59:14.362Z,8.17
2022-12-22T09:00:17.468Z,8.20
2022-12-22T09:01:23.201Z,8.22
2022-12-22T09:02:26.509Z,8.25
2022-12-22T09:03:29.796Z,8.27
2022-12-22T09:04:34.256Z,8.29
2022-12-22T09:05:38.769Z,8.31
2022-12-22T09:06:41.719Z,8.34
2022-12-22T09:07:47.243Z,8.35
2022-12-22T09:08:55.541Z,8.38
2022-12-22T09:09:58.755Z,8.40
2022-12-22T09:11:04.956Z,8.43
2022-12-22T09:12:08.401Z,8.47
2022-12-22T09:13:11.418Z,8.49
2022-12-22T09:14:14.524Z,8.52
2022-12-22T09:15:18.373Z,8.54
2022-12-22T09:16:22.917Z,8.55
2022-12-22T09:17:26.073Z,8.57
2022-12-22T09:18:29.039Z,8.57
2022-12-22T09:19:32.137Z,8.59
2022-12-22T09:20:35.255Z,8.60
2022-12-22T09:21:38.194Z,8.59
2022-12-22T09:22:41.177Z,8.59
2022-12-22T09:23:44.667Z,8.60
2022-12-22T09:24:47.636Z,8.59
2022-12-22T09:25:50.751Z,8.59
2022-12-22T09:26:53.731Z,8.60
2022-12-22T09:27:56.727Z,8.61
2022-12-22T09:28:59.681Z,8.62
2022-12-22T09:30:03.195Z,8.63
2022-12-22T09:31:06.941Z,8.63
2022-12-22T09:32:10.023Z,8.64
2022-12-22T09:33:13.176Z,8.65
2022-12-22T09:34:18.313Z,8.66
2022-12-22T09:35:22.192Z,8.66
2022-12-22T09:36:28.557Z,8.67
2022-12-22T09:37:31.557Z,8.68
2022-12-22T09:38:34.587Z,8.69
2022-12-22T09:39:37.815Z,8.70
2022-12-22T09:40:41.128Z,8.72
2022-12-22T09:41:57.102Z,8.75
2022-12-22T09:43:00.187Z,8.75
2022-12-22T09:44:06.109Z,8.76
2022-12-22T09:45:19.931Z,8.79
2022-12-22T09:46:29.458Z,8.81
2022-12-22T09:47:38.849Z,8.83
2022-12-22T09:48:41.907Z,8.85
2022-12-22T09:49:45.607Z,8.87
2022-12-22T09:50:48.714Z,8.86
2022-12-22T09:52:03.728Z,8.85
2022-12-22T09:53:14.631Z,8.85
2022-12-22T09:54:17.805Z,8.83
2022-12-22T09:55:37.877Z,8.81
2022-12-22T09:56:41.034Z,8.79
2022-12-22T09:57:44.288Z,8.77
2022-12-22T09:58:47.549Z,8.76
2022-12-22T09:59:50.637Z,8.77
2022-12-22T10:01:01.780Z,8.79
2022-12-22T10:02:31.920Z,8.80
2022-12-22T10:03:59.891Z,8.82
2022-12-22T10:05:28.620Z,8.82
2022-12-22T10:07:26.766Z,8.84
2022-12-22T10:08:34.868Z,8.86
2022-12-22T10:09:53.924Z,8.89
2022-12-22T10:10:57.405Z,8.88
2022-12-22T10:12:03.879Z,8.90
2022-12-22T10:13:14.150Z,8.91
2022-12-22T10:14:17.135Z,8.92
2022-12-22T10:15:22.178Z,8.93
2022-12-22T10:16:28.300Z,8.95
2022-12-22T10:17:33.885Z,8.95
2022-12-22T10:18:37.105Z,8.96
2022-12-22T10:19:40.073Z,8.97
2022-12-22T10:20:48.447Z,8.98
2022-12-22T10:21:52.597Z,8.99
2022-12-22T10:23:02.339Z,9.00
2022-12-22T10:24:35.683Z,8.99
2022-12-22T10:26:26.011Z,9.01
2022-12-22T10:27:05.329Z,9.03
2022-12-22T10:28:15.841Z,9.06
2022-12-22T10:29:18.842Z,9.10
2022-12-22T10:30:26.033Z,9.11
2022-12-22T10:31:34.808Z,9.17
2022-12-22T10:32:38.177Z,9.21
2022-12-22T10:33:46.784Z,9.24
2022-12-22T10:35:06.549Z,9.27
2022-12-22T10:36:09.872Z,9.29
2022-12-22T10:37:12.835Z,9.30
2022-12-22T10:38:24.025Z,9.34
2022-12-22T10:39:30.323Z,9.36
2022-12-22T10:40:43.922Z,9.38
2022-12-22T10:41:49.921Z,9.40
2022-12-22T10:42:56.071Z,9.42
2022-12-22T10:44:02.834Z,9.45
2022-12-22T10:45:07.406Z,9.49
2022-12-22T10:46:10.417Z,9.51
2022-12-22T10:47:24.544Z,9.55
2022-12-22T10:48:39.202Z,9.58
2022-12-22T10:49:45.703Z,9.62
2022-12-22T10:50:49.993Z,9.66
2022-12-22T10:51:57.250Z,9.70
2022-12-22T10:53:03.372Z,9.75
2022-12-22T10:54:06.659Z,9.79
2022-12-22T10:55:27.087Z,9.83
2022-12-22T10:56:34.013Z,9.87
2022-12-22T10:57:37.004Z,9.91
2022-12-22T10:58:49.048Z,9.95
2022-12-22T10:59:56.469Z,9.96
2022-12-22T11:01:03.818Z,9.97
2022-12-22T11:02:23.504Z,9.98
2022-12-22T11:03:31.475Z,9.98
2022-12-22T11:04:34.740Z,9.98
2022-12-22T11:05:37.853Z,9.98
2022-12-22T11:06:45.598Z,9.98
2022-12-22T11:07:48.784Z,9.99
2022-12-22T11:08:52.228Z,9.99
2022-12-22T11:09:55.394Z,9.96
2022-12-22T11:11:07.787Z,9.93
2022-12-22T11:12:30.530Z,9.89
2022-12-22T11:13:44.599Z,9.85
2022-12-22T11:15:08.186Z,9.81
2022-12-22T11:16:20.129Z,9.78
2022-12-22T11:17:28.930Z,9.76
2022-12-22T11:18:31.878Z,9.74
2022-12-22T11:19:55.087Z,9.73
2022-12-22T11:20:57.998Z,9.72
2022-12-22T11:22:21.053Z,9.71
2022-12-22T11:23:38.170Z,9.74
2022-12-22T11:25:00.164Z,9.75
2022-12-22T11:26:25.216Z,9.78
2022-12-22T11:27:45.913Z,9.82
2022-12-22T11:29:14.273Z,9.85
2022-12-22T11:30:27.422Z,9.87
2022-12-22T11:31:53.912Z,9.89
2022-12-22T11:33:18.613Z,9.92
2022-12-22T11:34:34.396Z,9.94
2022-12-22T11:36:04.962Z,9.98
2022-12-22T11:37:20.075Z,10.02
2022-12-22T11:38:35.136Z,10.01
2022-12-22T11:40:02.102Z,10.04
2022-12-22T11:41:05.171Z,10.01
2022-12-22T11:42:35.626Z,9.98
2022-12-22T11:43:59.524Z,9.93
2022-12-22T11:45:43.689Z,9.90
2022-12-22T11:46:58.994Z,9.83
2022-12-22T11:48:08.499Z,9.80
2022-12-22T11:49:21.010Z,9.79
2022-12-22T11:50:58.491Z,9.77
2022-12-22T11:52:30.528Z,9.74
2022-12-22T11:54:06.930Z,9.73
2022-12-22T11:55:25.977Z,9.74
2022-12-22T11:56:44.540Z,9.76
2022-12-22T11:58:01.033Z,9.76
2022-12-22T11:59:45.219Z,9.78
2022-12-22T12:01:25.702Z,9.77
2022-12-22T12:02:50.359Z,9.77
2022-12-22T12:04:05.525Z,9.78
2022-12-22T12:05:24.145Z,9.76
2022-12-22T12:06:32.702Z,9.77
2022-12-22T12:07:35.777Z,9.75
2022-12-22T12:08:44.402Z,9.74
2022-12-22T12:09:53.029Z,9.73
2022-12-22T12:11:23.715Z,9.70
2022-12-22T12:12:32.243Z,9.67
2022-12-22T12:14:09.397Z,9.66
2022-12-22T12:15:35.089Z,9.66
2022-12-22T12:16:53.208Z,9.65
2022-12-22T12:18:11.133Z,9.62
2022-12-22T12:19:28.395Z,9.61
2022-12-22T12:20:42.788Z,9.60
2022-12-22T12:21:56.470Z,9.59
2022-12-22T12:23:17.465Z,9.59
2022-12-22T12:24:40.717Z,9.58
2022-12-22T12:25:57.853Z,9.57
2022-12-22T12:27:06.281Z,9.55
2022-12-22T12:28:53.764Z,9.55
2022-12-22T12:30:39.046Z,9.51
2022-12-22T12:32:00.408Z,9.50
2022-12-22T12:33:13.511Z,9.46
2022-12-22T12:34:18.952Z,9.44
2022-12-22T12:35:33.971Z,9.44
2022-12-22T12:36:57.795Z,9.42
2022-12-22T12:40:16.648Z,9.39
2022-12-22T12:42:00.486Z,9.38
2022-12-22T12:43:04.618Z,9.36
2022-12-22T12:44:14.392Z,9.37
2022-12-22T12:45:50.256Z,9.37
2022-12-22T12:47:05.264Z,9.35
2022-12-22T12:48:23.754Z,9.33
2022-12-22T12:49:36.146Z,9.29
2022-12-22T12:50:39.329Z,9.27
2022-12-22T12:51:48.692Z,9.26
2022-12-22T12:52:51.809Z,9.24
2022-12-22T12:54:42.266Z,9.22
2022-12-22T12:55:48.136Z,9.16
2022-12-22T12:56:58.928Z,9.11
2022-12-22T12:58:04.279Z,9.08
2022-12-22T12:59:07.700Z,9.07
2022-12-22T13:00:34.093Z,9.03
2022-12-22T13:01:40.411Z,8.98
2022-12-22T13:02:56.577Z,8.96
2022-12-22T13:04:03.570Z,8.94
2022-12-22T13:05:08.371Z,8.90
2022-12-22T13:06:49.169Z,8.88
2022-12-22T13:08:06.703Z,8.84
2022-12-22T13:09:49.845Z,8.80
2022-12-22T13:10:53.194Z,8.78
2022-12-22T13:12:13.272Z,8.76
2022-12-22T13:13:21.317Z,8.71
2022-12-22T13:14:56.566Z,8.67
2022-12-22T13:15:59.550Z,8.62
2022-12-22T13:17:40.895Z,8.60
2022-12-22T13:18:51.466Z,8.57
2022-12-22T13:19:55.940Z,8.56
2022-12-22T13:22:28.864Z,8.52
2022-12-22T13:23:51.405Z,8.52
2022-12-22T13:25:03.786Z,8.51
2022-12-22T13:26:10.654Z,8.51
2022-12-22T13:27:13.783Z,8.49
2022-12-22T13:28:19.555Z,8.50
2022-12-22T13:29:22.595Z,8.49
2022-12-22T13:30:29.809Z,8.47
2022-12-22T13:31:52.605Z,8.46
2022-12-22T13:32:56.287Z,8.44
2022-12-22T13:34:24.673Z,8.44
2022-12-22T13:35:46.903Z,8.44
2022-12-22T13:36:51.759Z,8.44
2022-12-22T13:37:54.851Z,8.43
2022-12-22T13:39:01.346Z,8.44
2022-12-22T13:40:05.675Z,8.43
2022-12-22T13:41:26.513Z,8.40
2022-12-22T13:42:31.406Z,8.38
2022-12-22T13:43:35.387Z,8.36
2022-12-22T13:44:39.804Z,8.35
2022-12-22T13:45:54.616Z,8.34
2022-12-22T13:47:04.685Z,8.32
2022-12-22T13:48:20.970Z,8.31
2022-12-22T13:49:51.559Z,8.30
2022-12-22T13:50:59.625Z,8.27
2022-12-22T13:52:05.548Z,8.25
2022-12-22T13:53:41.547Z,8.25
2022-12-22T13:54:39.456Z,8.22
2022-12-22T13:55:48.727Z,8.21
2022-12-22T13:56:54.685Z,8.21
2022-12-22T13:58:06.631Z,8.20
2022-12-22T13:59:29.057Z,8.18
2022-12-22T14:00:32.322Z,8.16
2022-12-22T14:01:36.314Z,8.15
2022-12-22T14:02:39.668Z,8.13
2022-12-22T14:04:00.241Z,8.13
2022-12-22T14:05:13.655Z,8.13
2022-12-22T14:06:25.434Z,8.11
2022-12-22T14:07:28.342Z,8.10
2022-12-22T14:08:31.471Z,8.10
2022-12-22T14:09:34.583Z,8.09
2022-12-22T14:10:42.226Z,8.08
2022-12-22T14:11:55.527Z,8.07
2022-12-22T14:13:00.581Z,8.05
2022-12-22T14:14:14.213Z,8.04
2022-12-22T14:15:20.081Z,8.05
2022-12-22T14:16:23.380Z,8.05
2022-12-22T14:17:30.870Z,8.05
2022-12-22T14:18:34.118Z,8.04
2022-12-22T14:19:38.245Z,8.04
2022-12-22T14:20:45.442Z,8.04
2022-12-22T14:21:59.605Z,8.03
2022-12-22T14:23:17.781Z,8.02
2022-12-22T14:24:25.567Z,8.01
2022-12-22T14:25:36.107Z,8.01
2022-12-22T14:26:39.521Z,8.01
2022-12-22T14:27:53.000Z,8.02
2022-12-22T14:28:57.551Z,8.01
2022-12-22T14:30:04.077Z,7.99
2022-12-22T14:31:08.088Z,7.99
2022-12-22T14:32:32.004Z,7.99
2022-12-22T14:33:35.621Z,7.99
2022-12-22T14:34:38.607Z,7.98
2022-12-22T14:35:41.683Z,7.98
2022-12-22T14:36:53.914Z,7.98
2022-12-22T14:38:06.583Z,7.97
2022-12-22T14:39:10.629Z,7.98
2022-12-22T14:40:38.599Z,7.97
2022-12-22T14:41:51.464Z,7.95
2022-12-22T14:42:55.392Z,7.95
2022-12-22T14:44:00.003Z,7.96
2022-12-22T14:45:03.348Z,7.97
2022-12-22T14:46:08.985Z,7.97
2022-12-22T14:47:12.228Z,7.98
2022-12-22T14:48:27.679Z,7.99
2022-12-22T14:49:33.591Z,8.01
2022-12-22T14:50:37.088Z,8.03
2022-12-22T14:51:40.244Z,8.04
2022-12-22T14:52:49.338Z,8.04
2022-12-22T14:53:56.867Z,8.03
2022-12-22T14:55:01.641Z,8.04
2022-12-22T14:56:04.816Z,8.05
2022-12-22T14:57:16.231Z,8.06
2022-12-22T14:58:31.743Z,8.05
2022-12-22T14:59:34.750Z,8.06
2022-12-22T15:01:08.808Z,8.08
2022-12-22T15:02:31.104Z,8.08
2022-12-22T15:03:40.378Z,8.10
2022-12-22T15:04:43.520Z,8.11
2022-12-22T15:05:46.621Z,8.14
2022-12-22T15:06:50.220Z,8.16
2022-12-22T15:08:06.035Z,8.15
2022-12-22T15:09:13.535Z,8.15
2022-12-22T15:10:17.211Z,8.15
2022-12-22T15:11:24.153Z,8.18
2022-12-22T15:12:27.123Z,8.18
2022-12-22T15:13:30.795Z,8.19
2022-12-22T15:14:38.847Z,8.20
2022-12-22T15:15:42.336Z,8.19
2022-12-22T15:16:46.504Z,8.19
2022-12-22T15:17:52.068Z,8.19
2022-12-22T15:18:55.848Z,8.20
2022-12-22T15:19:59.383Z,8.20
2022-12-22T15:21:03.131Z,8.21
2022-12-22T15:22:08.008Z,8.21
2022-12-22T15:23:17.132Z,8.22
2022-12-22T15:24:20.589Z,8.22
2022-12-22T15:25:24.683Z,8.22
2022-12-22T15:26:30.617Z,8.22
2022-12-22T15:27:36.125Z,8.22
2022-12-22T15:28:39.609Z,8.22
2022-12-22T15:29:42.582Z,8.23
2022-12-22T15:30:45.986Z,8.24
2022-12-22T15:31:49.208Z,8.26
2022-12-22T15:32:52.359Z,8.25
2022-12-22T15:33:59.229Z,8.25
2022-12-22T15:35:03.426Z,8.25
2022-12-22T15:36:10.261Z,8.25
2022-12-22T15:37:13.261Z,8.25
2022-12-22T15:38:19.414Z,8.26
2022-12-22T15:39:24.668Z,8.26
2022-12-22T15:40:28.866Z,8.27
2022-12-22T15:41:32.313Z,8.27
2022-12-22T15:42:35.315Z,8.27
2022-12-22T15:45:04.121Z,8.28
2022-12-22T15:46:07.760Z,8.28
2022-12-22T15:47:12.629Z,8.28
2022-12-22T15:48:45.246Z,8.29
2022-12-22T15:49:48.338Z,8.29
2022-12-22T15:50:51.902Z,8.29
2022-12-22T15:51:59.064Z,8.28
2022-12-22T15:53:04.885Z,8.28
2022-12-22T15:54:13.705Z,8.26
2022-12-22T15:55:18.227Z,8.26
2022-12-22T15:56:24.781Z,8.27
2022-12-22T15:57:28.489Z,8.28
2022-12-22T15:58:35.347Z,8.28
2022-12-22T15:59:40.018Z,8.26
2022-12-22T16:00:43.025Z,8.25
2022-12-22T16:01:46.091Z,8.25
2022-12-22T16:02:51.081Z,8.26
2022-12-22T16:03:54.862Z,8.27
2022-12-22T16:04:57.878Z,8.29
2022-12-22T16:06:01.202Z,8.31
2022-12-22T16:07:04.803Z,8.32
2022-12-22T16:08:18.297Z,8.32
2022-12-22T16:09:25.337Z,8.32
2022-12-22T16:10:31.181Z,8.34
2022-12-22T16:11:34.300Z,8.35
2022-12-22T16:12:37.453Z,8.36
2022-12-22T16:13:41.154Z,8.37
2022-12-22T16:14:50.964Z,8.38
2022-12-22T16:15:54.543Z,8.39
2022-12-22T16:16:57.943Z,8.38
2022-12-22T16:18:04.921Z,8.39
2022-12-22T16:19:14.726Z,8.40
2022-12-22T16:20:17.752Z,8.41
2022-12-22T16:21:28.576Z,8.41
2022-12-22T16:22:36.106Z,8.41
2022-12-22T16:23:42.733Z,8.42
2022-12-22T16:24:48.661Z,8.44
2022-12-22T16:25:58.737Z,8.44
2022-12-22T16:27:04.826Z,8.46
2022-12-22T16:28:15.553Z,8.45
2022-12-22T16:29:18.576Z,8.46
2022-12-22T16:30:24.322Z,8.45
2022-12-22T16:31:27.458Z,8.46
2022-12-22T16:32:32.332Z,8.47
2022-12-22T16:33:37.681Z,8.48
2022-12-22T16:34:40.779Z,8.47
2022-12-22T16:35:44.215Z,8.48
2022-12-22T16:36:47.210Z,8.48
2022-12-22T16:37:51.160Z,8.48
2022-12-22T16:38:54.331Z,8.47
2022-12-22T16:39:57.295Z,8.47
2022-12-22T16:41:00.522Z,8.48
2022-12-22T16:42:03.823Z,8.49
2022-12-22T16:45:00.411Z,8.50
2022-12-22T16:46:06.198Z,8.50
2022-12-22T16:47:18.962Z,8.53
2022-12-22T16:48:38.881Z,8.54
2022-12-22T16:49:44.825Z,8.55
2022-12-22T16:50:48.633Z,8.57
2022-12-22T16:51:53.300Z,8.58
2022-12-22T16:52:56.406Z,8.61
2022-12-22T16:54:00.318Z,8.62
2022-12-22T16:55:13.823Z,8.63
2022-12-22T16:56:22.814Z,8.64
2022-12-22T16:57:25.974Z,8.66
2022-12-22T16:58:29.114Z,8.68
2022-12-22T16:59:32.160Z,8.70
2022-12-22T17:00:36.485Z,8.71
2022-12-22T17:01:57.437Z,8.72
2022-12-22T17:03:09.794Z,8.73
2022-12-22T17:04:24.475Z,8.73
2022-12-22T17:05:43.760Z,8.74
2022-12-22T17:06:49.812Z,8.75
2022-12-22T17:07:53.974Z,8.74
2022-12-22T17:08:57.229Z,8.74
2022-12-22T17:10:02.184Z,8.75
2022-12-22T17:11:11.375Z,8.77
2022-12-22T17:12:21.222Z,8.77
2022-12-22T17:13:25.297Z,8.76
2022-12-22T17:14:39.384Z,8.76
2022-12-22T17:15:42.681Z,8.77
2022-12-22T17:16:45.807Z,8.78
2022-12-22T17:17:49.715Z,8.78
2022-12-22T17:18:52.972Z,8.78
2022-12-22T17:19:55.882Z,8.80
2022-12-22T17:21:00.390Z,8.81
2022-12-22T17:22:03.478Z,8.82
2022-12-22T17:23:07.297Z,8.81
2022-12-22T17:24:15.049Z,8.81
2022-12-22T17:25:21.828Z,8.82
2022-12-22T17:26:25.762Z,8.83
2022-12-22T17:27:33.596Z,8.83
2022-12-22T17:28:37.665Z,8.84
2022-12-22T17:29:41.172Z,8.83
2022-12-22T17:30:44.451Z,8.83
2022-12-22T17:31:49.728Z,8.84
2022-12-22T17:32:53.489Z,8.83
2022-12-22T17:33:57.376Z,8.84
2022-12-22T17:35:01.121Z,8.86
2022-12-22T17:36:04.440Z,8.86
2022-12-22T17:37:22.071Z,8.87
2022-12-22T17:38:27.311Z,8.85
2022-12-22T17:39:32.274Z,8.85
2022-12-22T17:40:36.021Z,8.86
2022-12-22T17:41:39.302Z,8.86
2022-12-22T17:42:42.425Z,8.86
2022-12-22T17:43:46.637Z,8.85
2022-12-22T17:44:51.458Z,8.85
2022-12-22T17:45:54.494Z,8.84
2022-12-22T17:46:57.553Z,8.83
2022-12-22T17:48:00.700Z,8.83
2022-12-22T17:49:03.881Z,8.81
2022-12-22T17:50:10.716Z,8.80
2022-12-22T17:51:28.259Z,8.79
2022-12-22T17:52:32.051Z,8.78
2022-12-22T17:53:40.769Z,8.79
2022-12-22T17:54:46.471Z,8.78
2022-12-22T17:56:07.849Z,8.77
2022-12-22T17:57:25.993Z,8.75
2022-12-22T17:58:29.248Z,8.75
2022-12-22T17:59:32.349Z,8.76
2022-12-22T18:00:35.294Z,8.74
2022-12-22T18:01:40.372Z,8.74
2022-12-22T18:02:43.527Z,8.73
2022-12-22T18:03:47.082Z,8.71
2022-12-22T18:04:50.632Z,8.70
2022-12-22T18:05:55.090Z,8.69
2022-12-22T18:06:58.769Z,8.67
2022-12-22T18:08:02.168Z,8.66
2022-12-22T18:09:07.424Z,8.65
2022-12-22T18:10:37.016Z,8.63
2022-12-22T18:11:45.649Z,8.61
2022-12-22T18:12:49.826Z,8.61
2022-12-22T18:13:54.053Z,8.59
2022-12-22T18:14:57.332Z,8.59
2022-12-22T18:16:00.951Z,8.58
2022-12-22T18:17:04.105Z,8.58
2022-12-22T18:18:15.880Z,8.57
2022-12-22T18:19:19.424Z,8.56
2022-12-22T18:20:25.620Z,8.54
2022-12-22T18:21:28.925Z,8.54
2022-12-22T18:22:32.949Z,8.54
2022-12-22T18:23:38.280Z,8.54
2022-12-22T18:24:41.322Z,8.54
2022-12-22T18:25:44.401Z,8.53
2022-12-22T18:26:47.785Z,8.53
2022-12-22T18:27:51.286Z,8.51
2022-12-22T18:28:55.639Z,8.49
2022-12-22T18:30:01.852Z,8.48
2022-12-22T18:31:05.160Z,8.48
2022-12-22T18:32:10.751Z,8.47
2022-12-22T18:33:14.886Z,8.46
2022-12-22T18:34:18.130Z,8.46
2022-12-22T18:35:27.317Z,8.48
2022-12-22T18:36:33.020Z,8.49
2022-12-22T18:37:36.122Z,8.49
2022-12-22T18:38:39.134Z,8.49
2022-12-22T18:39:44.758Z,8.50
2022-12-22T18:40:48.185Z,8.50
2022-12-22T18:41:55.021Z,8.50
2022-12-22T18:42:59.713Z,8.50
2022-12-22T18:44:02.927Z,8.51
2022-12-22T18:45:13.735Z,8.51
2022-12-22T18:46:17.247Z,8.50
2022-12-22T18:47:20.397Z,8.50
2022-12-22T18:48:23.512Z,8.51
2022-12-22T18:51:10.156Z,8.52
2022-12-22T18:53:43.553Z,8.57
2022-12-22T18:54:47.335Z,8.55
2022-12-22T18:55:50.379Z,8.54
2022-12-22T18:56:53.623Z,8.53
2022-12-22T18:57:58.909Z,8.53
2022-12-22T18:59:02.636Z,8.55
2022-12-22T19:00:13.375Z,8.56
2022-12-22T19:01:23.878Z,8.57
2022-12-22T19:02:29.701Z,8.59
2022-12-22T19:03:33.189Z,8.60
2022-12-22T19:04:36.319Z,8.63
2022-12-22T19:05:40.621Z,8.64
2022-12-22T19:06:43.778Z,8.66
2022-12-22T19:07:46.884Z,8.67
2022-12-22T19:08:51.160Z,8.68
2022-12-22T19:09:54.684Z,8.69
2022-12-22T19:11:05.292Z,8.70
2022-12-22T19:12:14.438Z,8.70
2022-12-22T19:13:48.684Z,8.71
2022-12-22T19:14:58.698Z,8.69
2022-12-22T19:16:02.515Z,8.70
2022-12-22T19:17:13.465Z,8.72
2022-12-22T19:18:26.017Z,8.74
2022-12-22T19:19:29.942Z,8.75
2022-12-22T19:20:33.745Z,8.76
2022-12-22T19:21:36.853Z,8.77
2022-12-22T19:22:39.795Z,8.78
2022-12-22T19:23:43.913Z,8.79
2022-12-22T19:24:47.554Z,8.80
2022-12-22T19:25:54.466Z,8.81
2022-12-22T19:26:58.248Z,8.83
2022-12-22T19:28:24.292Z,8.84
2022-12-22T19:29:28.091Z,8.85
2022-12-22T19:30:31.258Z,8.87
2022-12-22T19:31:37.893Z,8.89
2022-12-22T19:32:46.189Z,8.89
2022-12-22T19:33:49.669Z,8.90
2022-12-22T19:34:52.770Z,8.90
2022-12-22T19:35:56.155Z,8.90
2022-12-22T19:36:59.374Z,8.90
2022-12-22T19:38:03.463Z,8.89
2022-12-22T19:39:06.542Z,8.89
2022-12-22T19:40:10.141Z,8.89
2022-12-22T19:41:27.395Z,8.88
2022-12-22T19:42:30.535Z,8.87
2022-12-22T19:43:33.693Z,8.86
2022-12-22T19:44:36.776Z,8.85
2022-12-22T19:45:39.832Z,8.85
2022-12-22T19:46:43.023Z,8.86
2022-12-22T19:47:46.657Z,8.86
2022-12-22T19:48:49.734Z,8.86
2022-12-22T19:49:52.826Z,8.85
2022-12-22T19:50:55.985Z,8.85
2022-12-22T19:51:59.151Z,8.86
2022-12-22T19:53:02.304Z,8.85
2022-12-22T19:54:05.539Z,8.86
2022-12-22T19:55:08.971Z,8.87
2022-12-22T19:56:24.180Z,8.88
2022-12-22T19:57:27.358Z,8.89
2022-12-22T19:58:39.524Z,8.89
2022-12-22T19:59:46.093Z,8.89
2022-12-22T20:00:50.015Z,8.91
2022-12-22T20:01:53.231Z,8.91
2022-12-22T20:02:57.643Z,8.91
2022-12-22T20:04:01.336Z,8.92
2022-12-22T20:05:11.633Z,8.91
2022-12-22T20:06:18.111Z,8.92
2022-12-22T20:07:23.678Z,8.91
2022-12-22T20:08:27.339Z,8.91
2022-12-22T20:09:30.553Z,8.91
2022-12-22T20:10:35.567Z,8.90
2022-12-22T20:11:38.881Z,8.91
2022-12-22T20:12:45.256Z,8.90
2022-12-22T20:13:49.408Z,8.90
2022-12-22T20:14:53.369Z,8.90
2022-12-22T20:15:56.366Z,8.90
2022-12-22T20:17:07.251Z,8.89
2022-12-22T20:18:15.001Z,8.89
2022-12-22T20:19:20.518Z,8.86
2022-12-22T20:20:32.002Z,8.86
2022-12-22T20:21:35.266Z,8.88
2022-12-22T20:22:38.973Z,8.89
2022-12-22T20:23:42.436Z,8.90
2022-12-22T20:24:48.274Z,8.90
2022-12-22T20:25:59.910Z,8.91
2022-12-22T20:27:03.144Z,8.91
2022-12-22T20:28:27.877Z,8.91
2022-12-22T20:29:31.128Z,8.91
2022-12-22T20:30:34.306Z,8.92
2022-12-22T20:31:37.341Z,8.93
2022-12-22T20:32:40.529Z,8.93
2022-12-22T20:33:44.028Z,8.92
2022-12-22T20:34:47.012Z,8.91
2022-12-22T20:35:52.644Z,8.92
2022-12-22T20:36:55.913Z,8.92
2022-12-22T20:37:59.415Z,8.91
2022-12-22T20:39:09.420Z,8.90
2022-12-22T20:40:31.031Z,8.90
2022-12-22T20:41:34.015Z,8.89
2022-12-22T20:42:37.333Z,8.88
2022-12-22T20:43:41.699Z,8.88
2022-12-22T20:45:03.160Z,8.89
2022-12-22T20:46:17.221Z,8.88
2022-12-22T20:47:22.482Z,8.88
2022-12-22T20:48:32.527Z,8.89
2022-12-22T20:49:35.775Z,8.90
2022-12-22T20:50:38.817Z,8.89
2022-12-22T20:51:42.041Z,8.88
2022-12-22T20:52:45.121Z,8.88
2022-12-22T20:53:49.005Z,8.87
2022-12-22T20:54:52.015Z,8.88
2022-12-22T20:55:55.863Z,8.87
2022-12-22T20:56:59.270Z,8.85
2022-12-22T20:58:02.345Z,8.84
2022-12-22T20:59:15.532Z,8.83
2022-12-22T21:00:20.311Z,8.81
2022-12-22T21:01:23.755Z,8.80
2022-12-22T21:02:28.151Z,8.80
2022-12-22T21:03:32.023Z,8.79
2022-12-22T21:04:35.313Z,8.78
2022-12-22T21:05:38.424Z,8.78
2022-12-22T21:06:49.383Z,8.77
2022-12-22T21:07:52.303Z,8.76
2022-12-22T21:08:58.642Z,8.77
2022-12-22T21:10:01.893Z,8.77
2022-12-22T21:11:05.598Z,8.77
2022-12-22T21:12:08.852Z,8.78
2022-12-22T21:13:13.832Z,8.79
2022-12-22T21:14:17.203Z,8.79
2022-12-22T21:15:23.545Z,8.80
2022-12-22T21:16:29.961Z,8.81
2022-12-22T21:17:33.089Z,8.81
2022-12-22T21:18:35.998Z,8.81